Time;durP1;ratioP1;P1;durP2;ratioP2;P2;SDS_P1;SDS_P2;PMS_P1;PMS_P2;Temp;Humidity;BMP_temperature;BMP_pressure;BME280_temperature;BME280_humidity;BME280_pressure;Samples;Min_cycle;Max_cycle;Signal;HPM_P1;HPM_P2
2023/05/16 00:00:52;;;;;;;19.30;13.65;;;;;;;11.52;83.84;100654.00;5071891;28;20090;-56
2023/05/16 00:03:19;;;;;;;20.00;14.52;;;;;;;11.45;84.40;100658.75;5072282;28;20052;-56
2023/05/16 00:05:46;;;;;;;19.55;14.65;;;;;;;11.43;83.61;100668.56;5072719;28;20508;-56
2023/05/16 00:08:13;;;;;;;20.58;13.00;;;;;;;11.44;84.31;100653.53;5072160;28;20076;-56
2023/05/16 00:10:41;;;;;;;18.92;13.98;;;;;;;11.51;83.24;100663.75;5071173;28;20064;-56
2023/05/16 00:13:08;;;;;;;17.38;13.10;;;;;;;11.56;83.31;100669.66;5079374;28;20729;-57
2023/05/16 00:15:35;;;;;;;17.83;14.10;;;;;;;11.53;83.28;100669.81;5075109;28;20409;-56
2023/05/16 00:18:01;;;;;;;19.55;14.02;;;;;;;11.47;83.63;100670.13;5085196;28;20059;-56
2023/05/16 00:20:28;;;;;;;17.38;12.85;;;;;;;11.43;84.05;100665.94;5071152;28;20044;-56
2023/05/16 00:22:57;;;;;;;18.00;14.00;;;;;;;11.43;84.12;100663.28;5072198;28;20053;-56
2023/05/16 00:25:23;;;;;;;18.27;14.65;;;;;;;11.37;83.88;100668.88;5072224;28;20389;-56
2023/05/16 00:27:50;;;;;;;16.90;13.80;;;;;;;11.30;85.12;100662.19;5071465;28;20048;-56
2023/05/16 00:30:16;;;;;;;24.25;16.10;;;;;;;11.31;84.70;100663.88;5078535;28;20106;-56
2023/05/16 00:32:43;;;;;;;19.75;14.25;;;;;;;11.29;84.66;100671.91;5071810;28;20052;-56
2023/05/16 00:35:10;;;;;;;26.15;15.25;;;;;;;11.26;84.44;100660.63;5071918;28;20547;-56
2023/05/16 00:37:37;;;;;;;18.40;14.32;;;;;;;11.20;84.97;100665.28;5082555;28;20052;-56
2023/05/16 00:40:04;;;;;;;24.23;13.73;;;;;;;11.14;84.69;100668.22;5057314;28;20044;-56
2023/05/16 00:42:31;;;;;;;27.38;14.88;;;;;;;11.09;84.70;100675.53;5072591;28;20135;-56
2023/05/16 00:44:58;;;;;;;20.10;13.60;;;;;;;11.02;85.33;100669.69;5071087;28;20056;-56
2023/05/16 00:47:24;;;;;;;27.65;16.33;;;;;;;10.95;85.69;100672.69;5072681;28;20049;-56
2023/05/16 00:49:51;;;;;;;21.13;14.75;;;;;;;10.93;85.95;100679.88;5071065;28;20456;-56
2023/05/16 00:52:17;;;;;;;25.13;15.45;;;;;;;10.92;86.41;100684.31;5071959;28;20677;-56
2023/05/16 00:54:44;;;;;;;24.58;15.55;;;;;;;10.97;85.83;100677.00;5071788;28;20045;-56
2023/05/16 00:57:10;;;;;;;25.92;15.23;;;;;;;10.88;86.34;100676.59;5071902;28;20110;-57
2023/05/16 00:59:37;;;;;;;25.75;15.98;;;;;;;10.91;86.31;100684.38;5071797;28;20049;-56
2023/05/16 01:02:04;;;;;;;23.00;15.65;;;;;;;10.87;85.60;100691.59;5071710;28;20040;-56
2023/05/16 01:04:31;;;;;;;22.98;16.63;;;;;;;10.83;85.96;100696.16;5076143;28;20049;-56
2023/05/16 01:06:58;;;;;;;24.02;16.85;;;;;;;10.73;86.70;100700.19;5075463;28;20144;-56
2023/05/16 01:09:24;;;;;;;25.20;16.80;;;;;;;10.70;86.75;100700.31;5074963;28;20517;-56
2023/05/16 01:11:55;;;;;;;24.00;16.80;;;;;;;10.67;87.65;100699.59;5075328;28;20052;-56
2023/05/16 01:14:30;;;;;;;24.05;16.75;;;;;;;10.65;87.59;100707.59;5075629;28;20059;-56
2023/05/16 01:16:56;;;;;;;24.02;17.42;;;;;;;10.61;87.63;100711.34;5075093;28;20114;-56
2023/05/16 01:19:38;;;;;;;30.90;17.52;;;;;;;10.53;88.16;100722.25;5080913;28;20106;-57
2023/05/16 01:22:15;;;;;;;24.13;16.48;;;;;;;10.51;87.46;100715.31;5093866;28;20437;-56
2023/05/16 01:24:47;;;;;;;23.58;17.50;;;;;;;10.53;88.03;100730.19;5075678;28;20048;-55
2023/05/16 01:27:15;;;;;;;26.58;17.17;;;;;;;10.54;87.98;100728.38;5074863;28;20075;-56
2023/05/16 01:29:42;;;;;;;26.15;16.70;;;;;;;10.57;87.61;100725.59;5066904;28;20048;-56
2023/05/16 01:32:08;;;;;;;28.27;16.55;;;;;;;10.62;87.75;100719.16;5074659;28;20059;-56
2023/05/16 01:34:35;;;;;;;27.33;17.55;;;;;;;10.60;87.77;100730.75;5075063;28;20131;-56
2023/05/16 01:37:08;;;;;;;24.73;15.63;;;;;;;10.65;86.82;100741.97;5074800;28;20106;-56
2023/05/16 01:39:56;;;;;;;19.20;14.73;;;;;;;10.77;85.96;100749.34;5075016;28;20052;-56
2023/05/16 01:42:28;;;;;;;26.50;15.07;;;;;;;10.70;86.03;100742.63;5055201;28;20049;-56
2023/05/16 01:45:27;;;;;;;21.33;15.30;;;;;;;10.70;85.92;100753.19;5054347;28;20056;-56
2023/05/16 01:48:04;;;;;;;21.83;15.00;;;;;;;10.69;85.80;100756.78;5074276;28;20506;-56
2023/05/16 01:50:35;;;;;;;25.25;15.48;;;;;;;10.77;86.09;100765.22;5074523;28;20055;-56
2023/05/16 01:53:11;;;;;;;29.75;16.27;;;;;;;10.78;86.45;100766.91;5074546;28;20045;-56
2023/05/16 01:55:48;;;;;;;27.55;14.80;;;;;;;10.74;85.50;100760.06;5074335;28;20063;-56
2023/05/16 01:58:16;;;;;;;19.20;13.43;;;;;;;10.74;84.65;100773.28;5074314;28;20087;-56
2023/05/16 02:00:43;;;;;;;25.80;12.85;;;;;;;10.77;83.71;100781.06;5074915;28;20048;-55
2023/05/16 02:03:10;;;;;;;20.30;14.32;;;;;;;10.72;84.10;100788.34;5074707;28;20056;-56
2023/05/16 02:05:37;;;;;;;21.73;15.02;;;;;;;10.66;83.89;100788.63;5073828;28;20067;-56
2023/05/16 02:08:04;;;;;;;23.52;14.75;;;;;;;10.76;84.44;100784.63;5074885;28;20052;-56
2023/05/16 02:10:31;;;;;;;17.38;12.43;;;;;;;10.63;82.48;100778.19;5075517;28;20105;-56
2023/05/16 02:12:57;;;;;;;20.65;13.23;;;;;;;10.60;82.61;100788.91;5075344;28;20057;-56
2023/05/16 02:15:23;;;;;;;29.00;13.00;;;;;;;10.56;82.15;100790.84;5072140;28;20056;-55
2023/05/16 02:17:50;;;;;;;25.65;13.77;;;;;;;10.62;82.17;100800.25;5075961;28;20082;-56
2023/05/16 02:20:17;;;;;;;21.50;12.73;;;;;;;10.53;81.69;100798.91;5075788;28;20048;-56
2023/05/16 02:22:45;;;;;;;17.48;12.00;;;;;;;10.45;81.82;100801.03;5074570;28;20056;-56
2023/05/16 02:25:14;;;;;;;24.77;12.93;;;;;;;10.59;82.34;100808.31;5073993;28;20445;-56
2023/05/16 02:27:41;;;;;;;18.20;13.02;;;;;;;10.45;81.69;100801.88;5089308;28;20486;-56
2023/05/16 02:30:10;;;;;;;22.55;12.70;;;;;;;10.45;82.37;100807.16;5072517;28;20048;-56
2023/05/16 02:32:40;;;;;;;18.88;13.45;;;;;;;10.49;81.81;100812.31;5074164;28;20055;-56
2023/05/16 02:35:07;;;;;;;19.70;12.75;;;;;;;10.49;81.27;100818.44;5074021;28;20048;-56
2023/05/16 02:37:34;;;;;;;21.25;12.95;;;;;;;10.42;81.64;100833.72;5073364;28;20156;-56
2023/05/16 02:40:02;;;;;;;18.67;12.10;;;;;;;10.37;81.88;100829.56;5073489;28;20048;-56
2023/05/16 02:42:29;;;;;;;20.75;12.35;;;;;;;10.09;81.81;100847.41;5073698;28;20071;-56
2023/05/16 02:44:56;;;;;;;19.73;13.02;;;;;;;10.02;82.45;100840.69;5073810;28;20653;-56
2023/05/16 02:47:22;;;;;;;21.20;12.73;;;;;;;9.90;81.78;100849.09;5073608;28;20059;-56
2023/05/16 02:49:51;;;;;;;21.67;13.10;;;;;;;9.98;81.67;100838.25;5073299;28;20045;-56
2023/05/16 02:52:18;;;;;;;24.88;14.60;;;;;;;9.94;82.33;100840.16;5071255;28;20376;-56
2023/05/16 02:54:45;;;;;;;22.50;13.43;;;;;;;9.83;81.73;100840.59;5076993;28;20049;-55
2023/05/16 02:57:25;;;;;;;23.00;14.75;;;;;;;9.85;82.08;100853.72;5073844;28;20130;-56
2023/05/16 02:59:52;;;;;;;25.00;14.68;;;;;;;9.82;82.02;100848.56;5073709;28;20363;-56
2023/05/16 03:02:18;;;;;;;26.77;13.43;;;;;;;9.83;82.14;100851.13;5072852;28;20136;-56
2023/05/16 03:04:45;;;;;;;24.27;14.60;;;;;;;9.89;82.82;100855.34;5073411;28;20056;-56
2023/05/16 03:07:11;;;;;;;23.55;14.00;;;;;;;9.93;81.67;100859.53;5066625;28;20044;-56
2023/05/16 03:09:38;;;;;;;22.80;15.32;;;;;;;9.70;82.82;100874.53;5072994;28;20056;-56
2023/05/16 03:12:04;;;;;;;25.42;15.45;;;;;;;9.62;82.60;100875.78;5072752;28;20098;-56
2023/05/16 03:14:32;;;;;;;25.05;16.17;;;;;;;9.64;83.20;100876.56;5073415;28;20076;-55
2023/05/16 03:16:59;;;;;;;24.63;17.10;;;;;;;9.75;83.83;100882.28;5071718;28;20542;-56
2023/05/16 03:19:25;;;;;;;21.30;14.82;;;;;;;9.77;83.07;100882.22;5073345;28;20044;-56
2023/05/16 03:21:52;;;;;;;25.23;15.45;;;;;;;9.63;83.06;100885.38;5072390;28;20076;-56
2023/05/16 03:24:21;;;;;;;37.85;16.85;;;;;;;9.68;82.81;100878.16;5073218;28;20078;-55
2023/05/16 03:26:48;;;;;;;28.67;16.65;;;;;;;9.55;82.86;100873.38;5077912;28;20340;-56
2023/05/16 03:29:15;;;;;;;24.52;16.02;;;;;;;9.56;82.59;100879.50;5056843;28;20049;-56
2023/05/16 03:31:41;;;;;;;28.17;16.88;;;;;;;9.57;82.29;100880.38;5072655;28;20048;-56
2023/05/16 03:34:08;;;;;;;27.00;16.10;;;;;;;9.55;82.94;100883.06;5072823;28;20052;-56
2023/05/16 03:36:34;;;;;;;30.85;18.45;;;;;;;9.64;82.91;100880.03;5087639;28;20054;-56
2023/05/16 03:39:01;;;;;;;31.20;17.63;;;;;;;9.62;81.76;100876.63;5072895;28;20052;-55
2023/05/16 03:41:28;;;;;;;26.38;17.17;;;;;;;9.68;82.76;100884.31;5075276;28;20041;-56
2023/05/16 03:43:54;;;;;;;26.33;17.52;;;;;;;9.55;82.40;100881.28;5059258;28;20052;-56
2023/05/16 03:46:21;;;;;;;32.65;16.65;;;;;;;9.43;83.44;100872.97;5072056;28;20059;-55
2023/05/16 03:48:47;;;;;;;28.60;17.90;;;;;;;9.49;83.15;100878.03;5073108;28;20500;-56
2023/05/16 03:51:14;;;;;;;24.73;15.82;;;;;;;9.54;83.33;100890.09;5072545;28;20048;-56
2023/05/16 03:53:40;;;;;;;29.05;17.80;;;;;;;9.37;83.23;100890.78;5064621;28;20055;-56
2023/05/16 03:56:07;;;;;;;35.97;19.00;;;;;;;9.43;83.15;100888.81;5071734;28;20068;-55
2023/05/16 03:58:33;;;;;;;29.10;17.00;;;;;;;9.28;82.91;100896.38;5072275;28;20060;-55
2023/05/16 04:01:00;;;;;;;28.95;18.23;;;;;;;9.33;83.08;100899.75;5071921;28;20075;-56
2023/05/16 04:03:28;;;;;;;29.75;17.08;;;;;;;9.23;83.21;100903.63;5072518;28;20049;-55
2023/05/16 04:05:56;;;;;;;30.40;16.50;;;;;;;9.32;83.41;100912.97;5075306;28;20048;-55
2023/05/16 04:08:23;;;;;;;39.20;16.77;;;;;;;9.34;82.45;100914.63;5066693;28;20370;-56
2023/05/16 04:10:50;;;;;;;25.08;16.40;;;;;;;9.45;82.85;100914.22;5072491;28;20071;-56
2023/05/16 04:13:17;;;;;;;28.50;17.00;;;;;;;9.47;83.40;100922.09;5073136;28;20098;-55
2023/05/16 04:15:43;;;;;;;29.83;15.40;;;;;;;9.41;82.72;100930.22;5071844;28;20052;-56
2023/05/16 04:18:10;;;;;;;27.98;16.30;;;;;;;9.32;83.24;100924.38;5073205;28;20048;-58
2023/05/16 04:20:36;;;;;;;32.13;15.88;;;;;;;9.28;83.25;100933.31;5072406;28;20106;-54
2023/05/16 04:23:03;;;;;;;35.25;15.18;;;;;;;9.27;82.83;100926.34;5072107;28;20044;-56
2023/05/16 04:25:30;;;;;;;27.77;15.30;;;;;;;9.41;83.30;100938.16;5071717;28;20052;-56
2023/05/16 04:27:56;;;;;;;24.23;14.40;;;;;;;9.47;82.84;100932.66;5065438;28;20041;-57
2023/05/16 04:30:23;;;;;;;27.23;15.18;;;;;;;9.39;82.04;100935.56;5068175;28;20380;-57
2023/05/16 04:32:49;;;;;;;29.83;13.98;;;;;;;9.42;81.60;100939.88;5083719;28;20044;-56
2023/05/16 04:35:16;;;;;;;23.48;13.90;;;;;;;9.36;81.83;100935.69;5053630;28;20048;-56
2023/05/16 04:37:42;;;;;;;21.15;13.43;;;;;;;9.41;82.65;100943.41;5073368;28;20054;-56
2023/05/16 04:40:10;;;;;;;21.40;13.50;;;;;;;9.39;81.68;100946.13;5088025;28;20392;-56
2023/05/16 04:42:36;;;;;;;23.73;13.38;;;;;;;9.37;81.85;100948.81;5076000;28;20399;-56
2023/05/16 04:45:05;;;;;;;22.23;13.20;;;;;;;9.34;81.32;100954.19;5076422;28;20548;-56
2023/05/16 04:47:31;;;;;;;18.80;12.75;;;;;;;9.34;82.21;100954.19;5080627;28;20129;-57
2023/05/16 04:49:58;;;;;;;23.30;12.27;;;;;;;9.34;81.64;100953.34;5072621;28;20070;-56
2023/05/16 04:52:25;;;;;;;19.98;10.77;;;;;;;9.52;81.88;100946.53;5077146;28;20041;-56
2023/05/16 04:54:51;;;;;;;24.35;13.50;;;;;;;9.47;81.85;100959.88;5075234;28;20055;-56
2023/05/16 04:57:18;;;;;;;16.05;11.02;;;;;;;9.41;81.12;100956.63;5079283;28;20121;-57
2023/05/16 04:59:44;;;;;;;23.83;12.93;;;;;;;9.40;81.25;100968.06;5080527;28;20044;-56
2023/05/16 05:02:11;;;;;;;21.25;11.70;;;;;;;9.36;81.48;100967.34;5075607;28;20052;-57
2023/05/16 05:04:38;;;;;;;18.92;13.63;;;;;;;9.27;81.41;100979.09;5073516;28;20075;-56
2023/05/16 05:07:04;;;;;;;18.48;13.30;;;;;;;9.50;81.24;100972.97;5072893;28;20132;-58
2023/05/16 05:09:31;;;;;;;25.30;14.07;;;;;;;9.54;80.11;100968.41;5087449;28;20072;-57
2023/05/16 05:11:58;;;;;;;21.15;13.73;;;;;;;9.54;80.92;100978.97;5057629;28;20075;-57
2023/05/16 05:14:25;;;;;;;19.27;12.45;;;;;;;9.69;79.99;100986.34;5057977;28;20056;-57
2023/05/16 05:16:51;;;;;;;23.27;11.93;;;;;;;9.53;80.30;100991.31;5075106;28;20045;-55
2023/05/16 05:19:19;;;;;;;20.90;12.57;;;;;;;9.52;80.14;100999.28;5075502;28;20380;-57
2023/05/16 05:21:46;;;;;;;18.77;12.38;;;;;;;9.64;79.77;100997.97;5075034;28;20045;-57
2023/05/16 05:24:12;;;;;;;23.42;13.90;;;;;;;9.65;79.32;101008.47;5075747;28;20419;-56
2023/05/16 05:26:39;;;;;;;24.45;14.65;;;;;;;9.66;79.36;101009.31;5075438;28;20060;-57
2023/05/16 05:29:07;;;;;;;27.13;14.57;;;;;;;9.60;79.31;101018.34;5057507;28;20060;-57
2023/05/16 05:31:34;;;;;;;19.85;13.57;;;;;;;9.66;79.48;101012.84;5071317;28;20052;-58
2023/05/16 05:34:02;;;;;;;26.85;15.18;;;;;;;9.62;78.87;101020.94;5075087;28;20052;-57
2023/05/16 05:36:29;;;;;;;24.83;14.77;;;;;;;9.72;79.19;101023.16;5075085;28;20118;-57
2023/05/16 05:38:56;;;;;;;19.85;13.15;;;;;;;9.90;79.48;101026.00;5075722;28;20342;-58
2023/05/16 05:41:23;;;;;;;21.73;12.18;;;;;;;9.91;78.30;101028.59;5074840;28;20056;-57
2023/05/16 05:43:50;;;;;;;19.05;13.27;;;;;;;9.86;78.14;101030.56;5076945;28;20055;-57
2023/05/16 05:46:16;;;;;;;17.35;12.55;;;;;;;9.96;78.23;101040.78;5075482;28;20064;-57
2023/05/16 05:48:46;;;;;;;21.05;12.82;;;;;;;9.96;78.41;101039.00;5067993;28;20102;-56
2023/05/16 05:51:13;;;;;;;18.98;13.13;;;;;;;10.02;77.68;101045.78;5074538;28;20058;-57
2023/05/16 05:53:40;;;;;;;19.00;12.57;;;;;;;9.93;77.25;101049.66;5074547;28;20063;-56
2023/05/16 05:56:07;;;;;;;17.25;12.52;;;;;;;10.04;77.16;101039.53;5057464;28;20056;-57
2023/05/16 05:58:34;;;;;;;25.52;15.77;;;;;;;9.98;77.06;101044.22;5078219;28;20461;-57
2023/05/16 06:01:01;;;;;;;19.10;12.57;;;;;;;10.08;76.98;101048.22;5060583;28;20068;-56
2023/05/16 06:03:27;;;;;;;19.70;13.13;;;;;;;10.17;77.64;101050.50;5093527;28;20048;-57
2023/05/16 06:05:54;;;;;;;25.75;13.82;;;;;;;10.11;76.94;101046.31;5078876;28;20098;-57
2023/05/16 06:08:21;;;;;;;19.63;12.38;;;;;;;10.29;76.71;101054.44;5080983;28;20593;-56
2023/05/16 06:10:47;;;;;;;20.42;12.68;;;;;;;10.07;76.23;101055.28;5067028;28;20044;-56
2023/05/16 06:13:14;;;;;;;17.63;11.38;;;;;;;10.04;76.94;101055.41;5074401;28;20045;-58
2023/05/16 06:15:41;;;;;;;17.48;11.45;;;;;;;10.23;75.85;101059.94;5073985;28;20082;-57
2023/05/16 06:18:07;;;;;;;31.35;12.30;;;;;;;10.21;76.66;101056.53;5074323;28;20059;-57
2023/05/16 06:20:34;;;;;;;16.25;12.27;;;;;;;10.25;76.17;101055.50;5074380;28;20060;-55
2023/05/16 06:23:00;;;;;;;20.67;12.20;;;;;;;10.35;74.65;101054.22;5077028;28;20059;-55
2023/05/16 06:25:27;;;;;;;19.05;11.77;;;;;;;10.34;75.14;101063.06;5074120;28;20102;-55
2023/05/16 06:27:54;;;;;;;18.42;12.35;;;;;;;10.30;74.57;101066.72;5074740;28;20078;-55
2023/05/16 06:30:20;;;;;;;14.80;11.02;;;;;;;10.36;74.54;101071.78;5056827;28;20044;-55
2023/05/16 06:32:47;;;;;;;16.23;12.23;;;;;;;10.29;74.46;101070.28;5071024;28;20055;-57
2023/05/16 06:35:14;;;;;;;16.50;11.68;;;;;;;10.29;74.97;101070.28;5074741;28;20127;-55
2023/05/16 06:37:40;;;;;;;17.90;10.95;;;;;;;10.37;74.47;101077.94;5074453;28;20045;-55
2023/05/16 06:40:09;;;;;;;13.43;10.57;;;;;;;10.27;73.71;101080.06;5073215;28;20380;-56
2023/05/16 06:42:36;;;;;;;18.10;10.70;;;;;;;10.31;74.39;101089.56;5075494;28;20040;-57
2023/05/16 06:45:03;;;;;;;17.67;10.70;;;;;;;10.52;74.22;101097.63;5073985;28;20377;-57
2023/05/16 06:47:30;;;;;;;14.75;10.70;;;;;;;10.41;73.29;101096.28;5073732;28;20070;-55
2023/05/16 06:49:56;;;;;;;13.13;10.55;;;;;;;10.46;73.84;101099.59;5077885;28;20129;-57
2023/05/16 06:52:23;;;;;;;15.25;11.45;;;;;;;10.55;73.41;101098.34;5058072;28;20102;-57
2023/05/16 06:54:50;;;;;;;21.08;12.02;;;;;;;10.47;72.85;101097.78;5083018;28;20044;-56
2023/05/16 06:57:17;;;;;;;20.08;10.50;;;;;;;10.55;72.72;101101.00;5074537;28;20105;-57
2023/05/16 06:59:44;;;;;;;31.02;12.07;;;;;;;10.60;72.64;101106.94;5078493;28;20086;-56
2023/05/16 07:02:12;;;;;;;14.63;10.02;;;;;;;10.86;71.73;101090.97;5057898;28;20052;-57
2023/05/16 07:04:39;;;;;;;17.48;11.25;;;;;;;11.01;72.01;101100.91;5084337;28;20114;-57
2023/05/16 07:07:06;;;;;;;19.08;11.35;;;;;;;10.94;71.53;101104.75;5079410;28;20063;-55
2023/05/16 07:09:34;;;;;;;14.77;10.45;;;;;;;10.90;70.93;101108.41;5087109;28;20048;-57
2023/05/16 07:12:00;;;;;;;13.63;10.05;;;;;;;10.97;70.93;101110.75;5086239;28;20364;-57
2023/05/16 07:14:27;;;;;;;16.10;9.65;;;;;;;10.99;71.42;101108.03;5089588;28;20467;-57
2023/05/16 07:16:53;;;;;;;14.75;9.60;;;;;;;10.96;70.86;101113.47;5072956;28;20147;-57
2023/05/16 07:19:20;;;;;;;14.23;10.63;;;;;;;10.93;71.44;101110.94;5065069;28;20144;-57
2023/05/16 07:21:47;;;;;;;12.65;9.32;;;;;;;11.03;71.34;101120.19;5080121;28;20108;-57
2023/05/16 07:24:13;;;;;;;13.18;9.75;;;;;;;11.14;70.91;101131.19;5094688;28;20044;-57
2023/05/16 07:26:40;;;;;;;14.85;8.70;;;;;;;11.17;71.13;101133.72;5075096;28;20052;-58
2023/05/16 07:29:06;;;;;;;14.32;8.45;;;;;;;11.09;70.80;101135.81;5060027;28;20046;-57
2023/05/16 07:31:33;;;;;;;12.32;7.97;;;;;;;11.18;70.59;101139.84;5074261;28;20052;-57
2023/05/16 07:34:00;;;;;;;12.27;6.65;;;;;;;11.00;71.57;101128.25;5086592;28;20040;-57
2023/05/16 07:36:26;;;;;;;12.65;6.70;;;;;;;11.02;70.62;101123.78;5074614;28;20078;-57
2023/05/16 07:38:53;;;;;;;12.02;6.38;;;;;;;10.77;71.75;101124.81;5077112;28;20041;-57
2023/05/16 07:41:20;;;;;;;9.85;5.05;;;;;;;10.82;71.14;101121.94;5070506;28;20052;-57
2023/05/16 07:43:46;;;;;;;7.05;5.50;;;;;;;11.00;71.34;101122.97;5070679;28;20044;-57
2023/05/16 07:46:13;;;;;;;7.30;4.88;;;;;;;11.01;71.11;101122.06;5074248;28;20131;-57
2023/05/16 07:48:40;;;;;;;8.15;5.10;;;;;;;11.03;71.03;101120.19;5076063;28;20060;-57
2023/05/16 07:51:06;;;;;;;9.43;4.82;;;;;;;11.11;70.79;101125.19;5074378;28;20135;-56
2023/05/16 07:53:33;;;;;;;9.13;4.35;;;;;;;11.09;69.94;101125.25;5073419;28;20136;-57
2023/05/16 07:56:00;;;;;;;9.13;4.78;;;;;;;11.14;70.05;101123.25;5073163;28;20147;-57
2023/05/16 07:58:26;;;;;;;9.15;4.65;;;;;;;11.19;70.49;101131.00;5055634;28;20135;-57
2023/05/16 08:00:53;;;;;;;13.32;4.47;;;;;;;11.46;69.76;101136.91;5073351;28;20048;-57
2023/05/16 08:03:20;;;;;;;6.55;4.50;;;;;;;11.44;69.52;101133.47;5080381;28;20122;-57
2023/05/16 08:05:47;;;;;;;6.55;3.58;;;;;;;11.25;69.43;101140.50;5065193;28;20136;-57
2023/05/16 08:08:14;;;;;;;7.32;3.75;;;;;;;11.05;70.06;101134.25;5089165;28;20059;-57
2023/05/16 08:10:41;;;;;;;5.55;3.80;;;;;;;11.15;69.94;101145.31;5076005;28;20079;-57
2023/05/16 08:13:08;;;;;;;10.63;3.78;;;;;;;11.23;69.94;101152.91;5069666;28;20068;-57
2023/05/16 08:15:34;;;;;;;7.18;3.83;;;;;;;11.33;70.02;101160.41;5076291;28;20584;-57
2023/05/16 08:18:01;;;;;;;6.95;4.32;;;;;;;11.19;69.29;101158.31;5078610;28;20471;-57
2023/05/16 08:20:28;;;;;;;4.53;3.17;;;;;;;11.28;69.76;101172.09;5054872;28;20066;-57
2023/05/16 08:22:54;;;;;;;6.82;3.80;;;;;;;11.19;70.01;101163.63;5071967;28;20139;-57
2023/05/16 08:25:21;;;;;;;10.48;3.63;;;;;;;11.17;69.92;101168.13;5067420;28;20385;-55
2023/05/16 08:27:49;;;;;;;4.38;2.80;;;;;;;11.15;70.41;101183.19;5073356;28;20045;-57
2023/05/16 08:30:15;;;;;;;5.68;3.40;;;;;;;11.12;70.00;101177.19;5071409;28;20102;-57
2023/05/16 08:32:42;;;;;;;8.63;2.75;;;;;;;11.10;70.13;101169.31;5073516;28;20049;-58
2023/05/16 08:35:09;;;;;;;5.50;3.88;;;;;;;11.29;69.14;101179.97;5082248;28;20246;-58
2023/05/16 08:37:36;;;;;;;5.43;3.35;;;;;;;11.39;68.83;101180.44;5071544;28;20052;-57
2023/05/16 08:40:04;;;;;;;4.80;3.10;;;;;;;11.39;69.29;101175.16;5081335;28;20162;-58
2023/05/16 08:42:32;;;;;;;6.80;3.67;;;;;;;11.38;69.19;101184.88;5072011;28;20048;-57
2023/05/16 08:44:59;;;;;;;6.65;3.40;;;;;;;11.34;70.33;101182.44;5071070;28;20052;-59
2023/05/16 08:47:29;;;;;;;4.85;3.10;;;;;;;11.06;70.93;101183.56;5071551;28;20498;-57
2023/05/16 08:49:57;;;;;;;6.63;3.60;;;;;;;11.20;70.80;101181.22;5072349;28;20090;-57
2023/05/16 08:52:30;;;;;;;10.70;3.97;;;;;;;11.19;71.83;101178.63;5074638;28;20152;-57
2023/05/16 08:55:00;;;;;;;11.75;4.53;;;;;;;11.16;71.65;101174.31;5057693;28;20054;-57
2023/05/16 08:57:37;;;;;;;6.57;4.07;;;;;;;11.14;72.11;101176.19;5072541;28;20064;-57
2023/05/16 09:00:10;;;;;;;6.20;3.35;;;;;;;11.17;71.86;101165.47;5069301;28;20373;-58
2023/05/16 09:02:38;;;;;;;5.50;3.20;;;;;;;11.17;71.56;101160.19;5076912;28;22349;-58
2023/05/16 09:05:08;;;;;;;6.97;3.25;;;;;;;11.12;71.74;101171.88;5057066;28;20048;-56
2023/05/16 09:07:35;;;;;;;8.70;3.42;;;;;;;11.00;72.15;101160.00;5092643;28;20091;-55
2023/05/16 09:10:02;;;;;;;13.77;4.00;;;;;;;10.90;72.75;101166.59;5087032;28;20048;-57
2023/05/16 09:12:28;;;;;;;8.52;3.70;;;;;;;10.95;72.73;101170.78;5054840;28;20139;-55
2023/05/16 09:14:55;;;;;;;5.80;3.50;;;;;;;10.93;73.20;101187.63;5054438;28;20073;-56
2023/05/16 09:17:22;;;;;;;11.65;4.10;;;;;;;10.92;72.99;101192.06;5069233;28;20134;-57
2023/05/16 09:20:14;;;;;;;8.15;3.58;;;;;;;11.03;72.34;101188.97;5072362;28;20049;-58
2023/05/16 09:22:53;;;;;;;7.85;4.13;;;;;;;11.18;72.11;101188.38;5072484;28;20102;-57
2023/05/16 09:25:22;;;;;;;10.05;4.13;;;;;;;11.15;72.39;101190.28;5075632;28;20131;-58
2023/05/16 09:27:52;;;;;;;;;;;;;;;11.10;71.47;101194.88;5076903;28;20075;-55
2023/05/16 09:30:29;;;;;;;6.93;3.58;;;;;;;11.38;71.55;101195.47;5075749;28;20260;-57
2023/05/16 09:32:56;;;;;;;8.90;4.32;;;;;;;11.38;69.75;101194.63;5057809;28;20048;-57
2023/05/16 09:35:22;;;;;;;17.48;4.25;;;;;;;11.50;69.98;101196.72;5075118;28;20383;-57
2023/05/16 09:38:14;;;;;;;8.80;2.92;;;;;;;11.48;69.60;101200.38;5075761;28;20064;-57
2023/05/16 09:40:41;;;;;;;;;;;;;;;11.34;70.47;101193.00;5058510;28;20048;-56
2023/05/16 09:43:07;;;;;;;7.35;3.45;;;;;;;11.11;71.27;101212.47;5080484;28;19921;-57
2023/05/16 09:45:35;;;;;;;5.40;3.47;;;;;;;10.94;70.79;101207.88;5078231;28;20108;-57
2023/05/16 09:48:07;;;;;;;5.60;3.22;;;;;;;10.94;70.52;101216.66;5055332;28;20053;-57
2023/05/16 09:50:35;;;;;;;6.20;3.15;;;;;;;11.23;70.88;101219.94;5062685;28;20048;-57
2023/05/16 09:53:03;;;;;;;15.25;4.40;;;;;;;11.29;70.98;101222.31;5083021;28;20470;-57
2023/05/16 09:55:30;;;;;;;10.88;3.15;;;;;;;11.35;69.79;101231.78;5081372;28;20658;-57
2023/05/16 09:57:57;;;;;;;10.45;3.42;;;;;;;11.51;69.05;101224.09;5076763;28;20093;-57
2023/05/16 10:00:33;;;;;;;10.52;3.30;;;;;;;11.46;68.85;101233.97;5075224;28;20052;-57
2023/05/16 10:03:02;;;;;;;12.43;3.63;;;;;;;11.29;69.21;101235.53;5075205;28;20040;-59
2023/05/16 10:05:32;;;;;;;11.50;3.15;;;;;;;11.35;67.47;101237.09;5075759;28;20062;-57
2023/05/16 10:08:01;;;;;;;9.98;3.38;;;;;;;11.47;66.47;101239.22;5076026;28;20060;-58
2023/05/16 10:10:29;;;;;;;16.20;4.35;;;;;;;11.58;66.03;101234.34;5073436;28;20372;-57
2023/05/16 10:13:00;;;;;;;10.07;3.08;;;;;;;11.77;65.27;101233.56;5074780;28;20144;-57
2023/05/16 10:15:27;;;;;;;9.68;3.40;;;;;;;12.15;63.67;101222.25;5070721;28;20041;-57
2023/05/16 10:17:58;;;;;;;18.85;3.80;;;;;;;12.26;64.16;101226.13;5074458;28;20047;-57
2023/05/16 10:20:26;;;;;;;11.23;3.50;;;;;;;12.43;63.31;101221.84;5070690;28;20620;-57
2023/05/16 10:22:55;;;;;;;11.35;3.03;;;;;;;12.69;63.03;101222.44;5071037;28;20049;-57
2023/05/16 10:25:31;;;;;;;10.45;3.35;;;;;;;13.04;61.32;101213.66;5073834;28;20147;-57
2023/05/16 10:27:58;;;;;;;13.10;3.15;;;;;;;13.19;60.08;101216.47;5074150;28;20082;-56
2023/05/16 10:30:25;;;;;;;10.90;2.58;;;;;;;12.84;59.92;101216.41;5074419;28;20152;-57
2023/05/16 10:32:52;;;;;;;12.25;3.45;;;;;;;13.11;59.89;101214.22;5074045;28;20147;-57
2023/05/16 10:35:20;;;;;;;17.33;3.72;;;;;;;13.08;60.22;101216.13;5084050;28;20134;-57
2023/05/16 10:37:48;;;;;;;8.10;2.42;;;;;;;12.83;60.51;101219.97;5078434;28;20151;-57
2023/05/16 10:40:15;;;;;;;9.63;2.80;;;;;;;12.61;61.07;101231.59;5074812;28;20148;-57
2023/05/16 10:43:07;;;;;;;16.38;3.88;;;;;;;12.80;60.38;101241.34;5079500;28;20127;-57
2023/05/16 10:45:38;;;;;;;9.48;2.10;;;;;;;12.57;59.88;101235.34;5079007;28;20107;-59
2023/05/16 10:48:05;;;;;;;;;;;;;;;12.48;60.29;101238.41;5062768;28;20060;-56
2023/05/16 10:50:43;;;;;;;12.52;2.72;;;;;;;12.47;60.22;101247.28;5071053;28;19921;-58
2023/05/16 10:53:28;;;;;;;15.70;2.75;;;;;;;12.28;60.53;101250.78;5073753;28;20051;-60
2023/05/16 10:55:58;;;;;;;11.18;2.47;;;;;;;12.17;60.64;101247.75;5073019;28;20108;-58
2023/05/16 10:58:34;;;;;;;14.65;2.95;;;;;;;12.29;60.33;101252.50;5084438;28;20107;-58
2023/05/16 11:01:19;;;;;;;14.95;3.30;;;;;;;12.37;60.65;101248.63;5058590;28;20048;-58
2023/05/16 11:04:03;;;;;;;11.85;2.58;;;;;;;12.55;60.23;101231.03;5079373;28;20055;-57
2023/05/16 11:06:32;;;;;;;13.15;3.25;;;;;;;12.22;59.81;101245.75;5073088;28;20051;-58
2023/05/16 11:09:14;;;;;;;13.10;3.80;;;;;;;12.33;60.35;101241.78;5068269;28;20048;-61
2023/05/16 11:11:42;;;;;;;7.43;2.67;;;;;;;12.36;61.10;101238.94;5077323;28;20124;-60
2023/05/16 11:14:32;;;;;;;10.02;2.95;;;;;;;12.45;61.19;101251.81;5055438;28;20049;-58
2023/05/16 11:17:12;;;;;;;10.10;2.50;;;;;;;12.06;60.54;101252.66;5076441;28;20044;-59
2023/05/16 11:19:46;;;;;;;10.57;3.15;;;;;;;12.39;60.95;101252.06;5075421;28;20052;-60
2023/05/16 11:22:18;;;;;;;14.85;3.45;;;;;;;12.49;59.31;101259.56;5072542;28;20040;-59